sensor_id;sensor_type;location;lat;lon;timestamp;temperature;humidity
30385;DHT22;17181;51.002;4.096;2023-01-23T14:55:39;6.10;99.90
30385;DHT22;17181;51.002;4.096;2023-01-23T14:58:10;6.10;99.90
30385;DHT22;17181;51.002;4.096;2023-01-23T15:00:39;6.10;99.90
30385;DHT22;17181;51.002;4.096;2023-01-23T15:03:09;6.10;99.90
30385;DHT22;17181;51.002;4.096;2023-01-23T15:05:35;6.20;99.90
30385;DHT22;17181;51.002;4.096;2023-01-23T15:08:25;6.30;99.90
30385;DHT22;17181;51.002;4.096;2023-01-23T15:10:57;6.20;99.90
30385;DHT22;17181;51.002;4.096;2023-01-23T15:16:01;6.20;99.90
30385;DHT22;17181;51.002;4.096;2023-01-23T15:18:30;6.20;99.90
30385;DHT22;17181;51.002;4.096;2023-01-23T15:21:04;6.20;99.90
30385;DHT22;17181;51.002;4.096;2023-01-23T15:23:32;6.20;99.90
30385;DHT22;17181;51.002;4.096;2023-01-23T15:31:34;6.10;99.90
30385;DHT22;17181;51.002;4.096;2023-01-23T15:34:32;6.10;99.90
30385;DHT22;17181;51.002;4.096;2023-01-23T15:39:47;6.10;99.90
30385;DHT22;17181;51.002;4.096;2023-01-23T15:44:40;6.10;99.90
30385;DHT22;17181;51.002;4.096;2023-01-23T15:47:07;6.00;99.90
30385;DHT22;17181;51.002;4.096;2023-01-23T15:49:36;6.00;99.90
30385;DHT22;17181;51.002;4.096;2023-01-23T15:54:47;6.00;99.90
30385;DHT22;17181;51.002;4.096;2023-01-23T15:57:14;6.00;99.90
30385;DHT22;17181;51.002;4.096;2023-01-23T15:59:40;6.00;99.90
30385;DHT22;17181;51.002;4.096;2023-01-23T16:02:09;5.90;99.90
30385;DHT22;17181;51.002;4.096;2023-01-23T16:04:38;6.00;99.90
30385;DHT22;17181;51.002;4.096;2023-01-23T16:07:06;5.90;99.90
30385;DHT22;17181;51.002;4.096;2023-01-23T16:09:35;6.00;99.90
30385;DHT22;17181;51.002;4.096;2023-01-23T16:12:02;6.00;99.90
30385;DHT22;17181;51.002;4.096;2023-01-23T16:14:29;5.90;99.90
30385;DHT22;17181;51.002;4.096;2023-01-23T16:16:54;5.90;99.90
30385;DHT22;17181;51.002;4.096;2023-01-23T16:19:20;5.90;99.90
30385;DHT22;17181;51.002;4.096;2023-01-23T16:21:46;6.00;99.90
30385;DHT22;17181;51.002;4.096;2023-01-23T16:24:20;6.00;99.90
30385;DHT22;17181;51.002;4.096;2023-01-23T16:26:48;5.90;99.90
30385;DHT22;17181;51.002;4.096;2023-01-23T16:29:41;5.90;99.90
30385;DHT22;17181;51.002;4.096;2023-01-23T16:32:09;5.90;99.90
30385;DHT22;17181;51.002;4.096;2023-01-23T16:34:34;5.90;99.90
30385;DHT22;17181;51.002;4.096;2023-01-23T16:37:00;5.80;99.90
30385;DHT22;17181;51.002;4.096;2023-01-23T16:39:30;5.80;99.90
30385;DHT22;17181;51.002;4.096;2023-01-23T16:41:56;5.80;99.90
30385;DHT22;17181;51.002;4.096;2023-01-23T16:44:22;5.80;99.90
30385;DHT22;17181;51.002;4.096;2023-01-23T16:46:50;5.80;99.90
30385;DHT22;17181;51.002;4.096;2023-01-23T16:49:16;5.80;99.90
30385;DHT22;17181;51.002;4.096;2023-01-23T16:52:02;5.90;99.90
30385;DHT22;17181;51.002;4.096;2023-01-23T16:54:28;5.80;99.90
30385;DHT22;17181;51.002;4.096;2023-01-23T16:56:54;5.80;99.90
30385;DHT22;17181;51.002;4.096;2023-01-23T16:59:33;5.80;99.90
30385;DHT22;17181;51.002;4.096;2023-01-23T17:02:10;5.80;99.90
30385;DHT22;17181;51.002;4.096;2023-01-23T17:04:37;5.80;99.90
30385;DHT22;17181;51.002;4.096;2023-01-23T17:07:08;5.80;99.90
30385;DHT22;17181;51.002;4.096;2023-01-23T17:09:35;5.90;99.90
30385;DHT22;17181;51.002;4.096;2023-01-23T17:12:00;5.80;99.90
30385;DHT22;17181;51.002;4.096;2023-01-23T17:14:29;5.80;99.90
30385;DHT22;17181;51.002;4.096;2023-01-23T17:17:02;5.90;99.90
30385;DHT22;17181;51.002;4.096;2023-01-23T17:19:33;5.80;99.90
30385;DHT22;17181;51.002;4.096;2023-01-23T17:22:00;5.80;99.90
30385;DHT22;17181;51.002;4.096;2023-01-23T17:24:27;5.80;99.90
30385;DHT22;17181;51.002;4.096;2023-01-23T17:26:53;5.80;99.90
30385;DHT22;17181;51.002;4.096;2023-01-23T17:29:19;5.80;99.90
30385;DHT22;17181;51.002;4.096;2023-01-23T17:31:46;5.80;99.90
30385;DHT22;17181;51.002;4.096;2023-01-23T17:34:19;5.70;99.90
30385;DHT22;17181;51.002;4.096;2023-01-23T17:36:46;5.80;99.90
30385;DHT22;17181;51.002;4.096;2023-01-23T17:39:12;5.80;99.90
30385;DHT22;17181;51.002;4.096;2023-01-23T17:41:38;5.70;99.90
30385;DHT22;17181;51.002;4.096;2023-01-23T17:44:04;5.70;99.90
30385;DHT22;17181;51.002;4.096;2023-01-23T17:46:32;5.70;99.90
30385;DHT22;17181;51.002;4.096;2023-01-23T17:48:59;5.70;99.90
30385;DHT22;17181;51.002;4.096;2023-01-23T17:51:25;5.60;99.90
30385;DHT22;17181;51.002;4.096;2023-01-23T17:53:51;5.60;99.90
30385;DHT22;17181;51.002;4.096;2023-01-23T17:56:17;5.60;99.90
30385;DHT22;17181;51.002;4.096;2023-01-23T17:58:43;5.50;99.90
30385;DHT22;17181;51.002;4.096;2023-01-23T18:01:21;5.50;99.90
30385;DHT22;17181;51.002;4.096;2023-01-23T18:03:49;5.50;99.90
30385;DHT22;17181;51.002;4.096;2023-01-23T18:06:15;5.60;99.90
30385;DHT22;17181;51.002;4.096;2023-01-23T18:08:41;5.50;99.90
30385;DHT22;17181;51.002;4.096;2023-01-23T18:11:16;5.50;99.90
30385;DHT22;17181;51.002;4.096;2023-01-23T18:13:52;5.50;99.90
30385;DHT22;17181;51.002;4.096;2023-01-23T18:16:23;5.50;99.90
30385;DHT22;17181;51.002;4.096;2023-01-23T18:19:00;5.50;99.90
30385;DHT22;17181;51.002;4.096;2023-01-23T18:21:31;5.50;99.90
30385;DHT22;17181;51.002;4.096;2023-01-23T18:23:57;5.50;99.90
30385;DHT22;17181;51.002;4.096;2023-01-23T18:34:58;5.50;99.90
30385;DHT22;17181;51.002;4.096;2023-01-23T18:40:18;5.50;99.90
30385;DHT22;17181;51.002;4.096;2023-01-23T18:45:33;5.50;99.90
30385;DHT22;17181;51.002;4.096;2023-01-23T18:47:59;5.50;99.90
30385;DHT22;17181;51.002;4.096;2023-01-23T18:50:25;5.50;99.90
30385;DHT22;17181;51.002;4.096;2023-01-23T18:55:54;5.50;99.90
30385;DHT22;17181;51.002;4.096;2023-01-23T19:03:46;5.40;99.90
30385;DHT22;17181;51.002;4.096;2023-01-23T19:06:23;5.40;99.90
30385;DHT22;17181;51.002;4.096;2023-01-23T19:08:50;5.40;99.90
30385;DHT22;17181;51.002;4.096;2023-01-23T19:14:14;5.40;99.90
30385;DHT22;17181;51.002;4.096;2023-01-23T19:16:56;5.30;99.90
30385;DHT22;17181;51.002;4.096;2023-01-23T19:19:29;5.30;99.90
30385;DHT22;17181;51.002;4.096;2023-01-23T19:21:56;5.20;99.90
30385;DHT22;17181;51.002;4.096;2023-01-23T19:24:23;5.20;99.90
30385;DHT22;17181;51.002;4.096;2023-01-23T19:26:49;5.20;99.90
30385;DHT22;17181;51.002;4.096;2023-01-23T19:29:15;5.20;99.90
30385;DHT22;17181;51.002;4.096;2023-01-23T19:31:41;5.20;99.90
30385;DHT22;17181;51.002;4.096;2023-01-23T19:34:07;5.20;99.90
30385;DHT22;17181;51.002;4.096;2023-01-23T19:36:34;5.20;99.90
30385;DHT22;17181;51.002;4.096;2023-01-23T19:39:01;5.30;99.90
30385;DHT22;17181;51.002;4.096;2023-01-23T19:44:01;5.20;99.90
30385;DHT22;17181;51.002;4.096;2023-01-23T19:46:32;5.20;99.90
30385;DHT22;17181;51.002;4.096;2023-01-23T19:48:58;5.20;99.90
30385;DHT22;17181;51.002;4.096;2023-01-23T19:51:26;5.20;99.90
30385;DHT22;17181;51.002;4.096;2023-01-23T19:53:53;5.20;99.90
30385;DHT22;17181;51.002;4.096;2023-01-23T19:56:19;5.20;99.90
30385;DHT22;17181;51.002;4.096;2023-01-23T19:58:46;5.20;99.90
30385;DHT22;17181;51.002;4.096;2023-01-23T20:01:26;5.20;99.90
30385;DHT22;17181;51.002;4.096;2023-01-23T20:03:54;5.20;99.90
30385;DHT22;17181;51.002;4.096;2023-01-23T20:06:20;5.20;99.90
30385;DHT22;17181;51.002;4.096;2023-01-23T20:08:46;5.20;99.90
30385;DHT22;17181;51.002;4.096;2023-01-23T20:11:12;5.20;99.90
30385;DHT22;17181;51.002;4.096;2023-01-23T20:13:38;5.10;99.90
30385;DHT22;17181;51.002;4.096;2023-01-23T20:16:22;5.10;99.90
30385;DHT22;17181;51.002;4.096;2023-01-23T20:18:52;5.10;99.90
30385;DHT22;17181;51.002;4.096;2023-01-23T20:21:21;5.10;99.90
30385;DHT22;17181;51.002;4.096;2023-01-23T20:23:47;5.20;99.90
30385;DHT22;17181;51.002;4.096;2023-01-23T20:26:15;5.20;99.90
30385;DHT22;17181;51.002;4.096;2023-01-23T20:28:41;5.20;99.90
30385;DHT22;17181;51.002;4.096;2023-01-23T20:31:09;5.10;99.90
30385;DHT22;17181;51.002;4.096;2023-01-23T20:33:35;5.20;99.90
30385;DHT22;17181;51.002;4.096;2023-01-23T20:36:00;5.20;99.90
30385;DHT22;17181;51.002;4.096;2023-01-23T20:38:26;5.10;99.90
30385;DHT22;17181;51.002;4.096;2023-01-23T20:40:52;5.20;99.90
30385;DHT22;17181;51.002;4.096;2023-01-23T20:43:18;5.20;99.90
30385;DHT22;17181;51.002;4.096;2023-01-23T20:48:11;5.20;99.90
30385;DHT22;17181;51.002;4.096;2023-01-23T20:50:36;5.20;99.90
30385;DHT22;17181;51.002;4.096;2023-01-23T20:53:02;5.20;99.90
30385;DHT22;17181;51.002;4.096;2023-01-23T20:55:52;5.20;99.90
30385;DHT22;17181;51.002;4.096;2023-01-23T20:58:18;5.30;99.90
30385;DHT22;17181;51.002;4.096;2023-01-23T21:01:02;5.30;99.90
30385;DHT22;17181;51.002;4.096;2023-01-23T21:03:28;5.20;99.90
30385;DHT22;17181;51.002;4.096;2023-01-23T21:05:54;5.20;99.90
30385;DHT22;17181;51.002;4.096;2023-01-23T21:08:21;5.30;99.90
30385;DHT22;17181;51.002;4.096;2023-01-23T21:10:48;5.20;99.90
30385;DHT22;17181;51.002;4.096;2023-01-23T21:13:17;5.20;99.90
30385;DHT22;17181;51.002;4.096;2023-01-23T21:15:43;5.20;99.90
30385;DHT22;17181;51.002;4.096;2023-01-23T21:18:11;5.20;99.90
30385;DHT22;17181;51.002;4.096;2023-01-23T21:20:36;5.20;99.90
30385;DHT22;17181;51.002;4.096;2023-01-23T21:23:02;5.20;99.90
30385;DHT22;17181;51.002;4.096;2023-01-23T21:25:29;5.20;99.90
30385;DHT22;17181;51.002;4.096;2023-01-23T21:27:54;5.30;99.90
30385;DHT22;17181;51.002;4.096;2023-01-23T21:30:20;5.20;99.90
30385;DHT22;17181;51.002;4.096;2023-01-23T21:32:46;5.20;99.90
30385;DHT22;17181;51.002;4.096;2023-01-23T21:35:11;5.20;99.90
30385;DHT22;17181;51.002;4.096;2023-01-23T21:37:37;5.20;99.90
30385;DHT22;17181;51.002;4.096;2023-01-23T21:40:03;5.20;99.90
30385;DHT22;17181;51.002;4.096;2023-01-23T21:42:29;5.20;99.90
30385;DHT22;17181;51.002;4.096;2023-01-23T21:44:55;5.20;99.90
30385;DHT22;17181;51.002;4.096;2023-01-23T21:47:22;5.20;99.90
30385;DHT22;17181;51.002;4.096;2023-01-23T21:49:48;5.30;99.90
30385;DHT22;17181;51.002;4.096;2023-01-23T21:52:16;5.20;99.90
30385;DHT22;17181;51.002;4.096;2023-01-23T21:54:42;5.20;99.90
30385;DHT22;17181;51.002;4.096;2023-01-23T21:57:08;5.20;99.90
30385;DHT22;17181;51.002;4.096;2023-01-23T21:59:34;5.20;99.90
30385;DHT22;17181;51.002;4.096;2023-01-23T22:02:01;5.20;99.90
30385;DHT22;17181;51.002;4.096;2023-01-23T22:04:26;5.20;99.90
30385;DHT22;17181;51.002;4.096;2023-01-23T22:06:55;5.20;99.90
30385;DHT22;17181;51.002;4.096;2023-01-23T22:09:22;5.20;99.90
30385;DHT22;17181;51.002;4.096;2023-01-23T22:11:53;5.20;99.90
30385;DHT22;17181;51.002;4.096;2023-01-23T22:14:20;5.20;99.90
30385;DHT22;17181;51.002;4.096;2023-01-23T22:16:46;5.20;99.90
30385;DHT22;17181;51.002;4.096;2023-01-23T22:19:16;5.30;99.90
30385;DHT22;17181;51.002;4.096;2023-01-23T22:21:42;5.20;99.90
30385;DHT22;17181;51.002;4.096;2023-01-23T22:24:10;5.20;99.90
30385;DHT22;17181;51.002;4.096;2023-01-23T22:26:36;5.20;99.90
30385;DHT22;17181;51.002;4.096;2023-01-23T22:29:02;5.20;99.90
30385;DHT22;17181;51.002;4.096;2023-01-23T22:31:28;5.20;99.90
30385;DHT22;17181;51.002;4.096;2023-01-23T22:33:54;5.30;99.90
30385;DHT22;17181;51.002;4.096;2023-01-23T22:36:20;5.20;99.90
30385;DHT22;17181;51.002;4.096;2023-01-23T22:38:50;5.20;99.90
30385;DHT22;17181;51.002;4.096;2023-01-23T22:41:17;5.20;99.90
30385;DHT22;17181;51.002;4.096;2023-01-23T22:43:42;5.20;99.90
30385;DHT22;17181;51.002;4.096;2023-01-23T22:46:14;5.20;99.90
30385;DHT22;17181;51.002;4.096;2023-01-23T22:48:40;5.20;99.90
30385;DHT22;17181;51.002;4.096;2023-01-23T22:51:13;5.10;99.90
30385;DHT22;17181;51.002;4.096;2023-01-23T22:53:39;5.10;99.90
30385;DHT22;17181;51.002;4.096;2023-01-23T22:56:05;5.10;99.90
30385;DHT22;17181;51.002;4.096;2023-01-23T22:58:32;5.10;99.90
30385;DHT22;17181;51.002;4.096;2023-01-23T23:00:59;5.10;99.90
30385;DHT22;17181;51.002;4.096;2023-01-23T23:03:24;5.10;99.90
30385;DHT22;17181;51.002;4.096;2023-01-23T23:05:56;5.20;99.90
30385;DHT22;17181;51.002;4.096;2023-01-23T23:08:23;5.10;99.90
30385;DHT22;17181;51.002;4.096;2023-01-23T23:11:10;5.10;99.90
30385;DHT22;17181;51.002;4.096;2023-01-23T23:13:38;5.10;99.90
30385;DHT22;17181;51.002;4.096;2023-01-23T23:16:06;5.10;99.90
30385;DHT22;17181;51.002;4.096;2023-01-23T23:18:33;5.10;99.90
30385;DHT22;17181;51.002;4.096;2023-01-23T23:21:06;5.10;99.90
30385;DHT22;17181;51.002;4.096;2023-01-23T23:23:33;5.10;99.90
30385;DHT22;17181;51.002;4.096;2023-01-23T23:25:59;5.10;99.90
30385;DHT22;17181;51.002;4.096;2023-01-23T23:28:25;5.10;99.90
30385;DHT22;17181;51.002;4.096;2023-01-23T23:30:52;5.00;99.90
30385;DHT22;17181;51.002;4.096;2023-01-23T23:33:18;5.10;99.90
30385;DHT22;17181;51.002;4.096;2023-01-23T23:35:44;5.10;99.90
30385;DHT22;17181;51.002;4.096;2023-01-23T23:38:10;5.00;99.90
30385;DHT22;17181;51.002;4.096;2023-01-23T23:40:37;5.10;99.90
30385;DHT22;17181;51.002;4.096;2023-01-23T23:43:04;5.10;99.90
30385;DHT22;17181;51.002;4.096;2023-01-23T23:45:30;5.00;99.90
30385;DHT22;17181;51.002;4.096;2023-01-23T23:47:56;5.10;99.90
30385;DHT22;17181;51.002;4.096;2023-01-23T23:50:22;5.10;99.90
30385;DHT22;17181;51.002;4.096;2023-01-23T23:52:47;5.10;99.90
30385;DHT22;17181;51.002;4.096;2023-01-23T23:55:14;5.10;99.90
30385;DHT22;17181;51.002;4.096;2023-01-23T23:57:40;5.10;99.90
